sensor_id;sensor_type;location;lat;lon;timestamp;pressure;altitude;pressure_sealevel;temperature;humidity
50123;BME280;36021;48.670;6.184;2023-06-10T00:00:50;98494.09;;;23.21;100.00
50123;BME280;36021;48.670;6.184;2023-06-10T00:03:16;98487.16;;;23.08;100.00
50123;BME280;36021;48.670;6.184;2023-06-10T00:05:43;98498.38;;;23.04;100.00
50123;BME280;36021;48.670;6.184;2023-06-10T00:08:08;98497.09;;;22.95;100.00
50123;BME280;36021;48.670;6.184;2023-06-10T00:10:37;98493.03;;;22.89;100.00
50123;BME280;36021;48.670;6.184;2023-06-10T00:13:05;98497.41;;;22.82;100.00
50123;BME280;36021;48.670;6.184;2023-06-10T00:15:34;98493.75;;;22.78;100.00
50123;BME280;36021;48.670;6.184;2023-06-10T00:18:01;98498.22;;;22.83;100.00
50123;BME280;36021;48.670;6.184;2023-06-10T00:20:29;98483.72;;;22.77;100.00
50123;BME280;36021;48.670;6.184;2023-06-10T00:23:00;98490.13;;;22.78;100.00
50123;BME280;36021;48.670;6.184;2023-06-10T00:25:27;98494.00;;;22.63;100.00
50123;BME280;36021;48.670;6.184;2023-06-10T00:27:53;98492.72;;;22.53;100.00
50123;BME280;36021;48.670;6.184;2023-06-10T00:30:20;98496.66;;;22.49;100.00
50123;BME280;36021;48.670;6.184;2023-06-10T00:32:46;98501.47;;;22.48;100.00
50123;BME280;36021;48.670;6.184;2023-06-10T00:35:12;98505.06;;;22.45;100.00
50123;BME280;36021;48.670;6.184;2023-06-10T00:37:38;98499.81;;;22.40;100.00
50123;BME280;36021;48.670;6.184;2023-06-10T00:40:04;98513.69;;;22.26;100.00
50123;BME280;36021;48.670;6.184;2023-06-10T00:42:32;98503.22;;;22.23;100.00
50123;BME280;36021;48.670;6.184;2023-06-10T00:44:58;98506.72;;;22.13;100.00
50123;BME280;36021;48.670;6.184;2023-06-10T00:47:25;98500.59;;;22.04;100.00
50123;BME280;36021;48.670;6.184;2023-06-10T00:49:50;98504.94;;;21.98;100.00
50123;BME280;36021;48.670;6.184;2023-06-10T00:52:16;98506.13;;;21.97;100.00
50123;BME280;36021;48.670;6.184;2023-06-10T00:54:44;98505.38;;;22.00;100.00
50123;BME280;36021;48.670;6.184;2023-06-10T00:57:11;98512.84;;;21.89;100.00
50123;BME280;36021;48.670;6.184;2023-06-10T00:59:38;98506.28;;;21.77;100.00
50123;BME280;36021;48.670;6.184;2023-06-10T01:02:06;98507.34;;;21.66;100.00
50123;BME280;36021;48.670;6.184;2023-06-10T01:04:33;98510.41;;;21.57;100.00
50123;BME280;36021;48.670;6.184;2023-06-10T01:07:16;98507.84;;;21.45;100.00
50123;BME280;36021;48.670;6.184;2023-06-10T01:10:01;98515.91;;;21.50;100.00
50123;BME280;36021;48.670;6.184;2023-06-10T01:12:33;98511.06;;;21.47;100.00
50123;BME280;36021;48.670;6.184;2023-06-10T01:15:00;98503.75;;;21.39;100.00
50123;BME280;36021;48.670;6.184;2023-06-10T01:17:28;98506.63;;;21.43;100.00
50123;BME280;36021;48.670;6.184;2023-06-10T01:19:55;98512.06;;;21.32;100.00
50123;BME280;36021;48.670;6.184;2023-06-10T01:22:26;98509.91;;;21.22;100.00
50123;BME280;36021;48.670;6.184;2023-06-10T01:24:58;98508.97;;;21.14;100.00
50123;BME280;36021;48.670;6.184;2023-06-10T01:27:29;98504.72;;;21.24;100.00
50123;BME280;36021;48.670;6.184;2023-06-10T01:30:04;98513.88;;;21.21;100.00
50123;BME280;36021;48.670;6.184;2023-06-10T01:32:37;98514.22;;;21.16;100.00
50123;BME280;36021;48.670;6.184;2023-06-10T01:35:08;98518.53;;;21.10;100.00
50123;BME280;36021;48.670;6.184;2023-06-10T01:37:38;98516.16;;;21.12;100.00
50123;BME280;36021;48.670;6.184;2023-06-10T01:40:05;98518.34;;;20.99;100.00
50123;BME280;36021;48.670;6.184;2023-06-10T01:42:32;98518.91;;;20.86;100.00
50123;BME280;36021;48.670;6.184;2023-06-10T01:45:01;98520.53;;;20.87;100.00
50123;BME280;36021;48.670;6.184;2023-06-10T01:47:26;98529.28;;;20.85;100.00
50123;BME280;36021;48.670;6.184;2023-06-10T01:49:52;98536.72;;;20.74;100.00
50123;BME280;36021;48.670;6.184;2023-06-10T01:52:18;98532.22;;;20.69;100.00
50123;BME280;36021;48.670;6.184;2023-06-10T01:54:43;98536.66;;;20.70;100.00
50123;BME280;36021;48.670;6.184;2023-06-10T01:57:11;98538.72;;;20.73;100.00
50123;BME280;36021;48.670;6.184;2023-06-10T01:59:38;98538.78;;;20.77;100.00
50123;BME280;36021;48.670;6.184;2023-06-10T02:02:04;98545.44;;;20.69;100.00
50123;BME280;36021;48.670;6.184;2023-06-10T02:04:31;98545.22;;;20.58;100.00
50123;BME280;36021;48.670;6.184;2023-06-10T02:06:58;98546.09;;;20.62;100.00
50123;BME280;36021;48.670;6.184;2023-06-10T02:09:24;98542.81;;;20.57;100.00
50123;BME280;36021;48.670;6.184;2023-06-10T02:11:51;98551.75;;;20.43;100.00
50123;BME280;36021;48.670;6.184;2023-06-10T02:14:16;98558.25;;;20.47;100.00
50123;BME280;36021;48.670;6.184;2023-06-10T02:16:42;98555.44;;;20.47;100.00
50123;BME280;36021;48.670;6.184;2023-06-10T02:19:11;98561.13;;;20.51;100.00
50123;BME280;36021;48.670;6.184;2023-06-10T02:21:40;98553.53;;;20.51;100.00
50123;BME280;36021;48.670;6.184;2023-06-10T02:24:09;98558.66;;;20.49;100.00
50123;BME280;36021;48.670;6.184;2023-06-10T02:26:35;98562.03;;;20.58;100.00
50123;BME280;36021;48.670;6.184;2023-06-10T02:29:01;98566.72;;;20.73;100.00
50123;BME280;36021;48.670;6.184;2023-06-10T02:31:28;98555.66;;;20.81;100.00
50123;BME280;36021;48.670;6.184;2023-06-10T02:33:56;98565.34;;;20.87;100.00
50123;BME280;36021;48.670;6.184;2023-06-10T02:36:22;98568.28;;;20.71;100.00
50123;BME280;36021;48.670;6.184;2023-06-10T02:38:50;98563.09;;;20.50;100.00
50123;BME280;36021;48.670;6.184;2023-06-10T02:41:17;98563.34;;;20.42;100.00
50123;BME280;36021;48.670;6.184;2023-06-10T02:43:44;98568.97;;;20.45;100.00
50123;BME280;36021;48.670;6.184;2023-06-10T02:46:10;98574.47;;;20.38;100.00
50123;BME280;36021;48.670;6.184;2023-06-10T02:48:42;98569.47;;;20.28;100.00
50123;BME280;36021;48.670;6.184;2023-06-10T02:51:10;98574.34;;;20.31;100.00
50123;BME280;36021;48.670;6.184;2023-06-10T02:53:39;98575.50;;;20.30;100.00
50123;BME280;36021;48.670;6.184;2023-06-10T02:56:08;98575.16;;;20.32;100.00
50123;BME280;36021;48.670;6.184;2023-06-10T02:58:34;98579.63;;;20.36;100.00
50123;BME280;36021;48.670;6.184;2023-06-10T03:01:02;98582.84;;;20.19;100.00
50123;BME280;36021;48.670;6.184;2023-06-10T03:03:34;98582.25;;;20.10;100.00
50123;BME280;36021;48.670;6.184;2023-06-10T03:06:06;98586.97;;;20.06;100.00
50123;BME280;36021;48.670;6.184;2023-06-10T03:08:33;98582.75;;;19.96;100.00
50123;BME280;36021;48.670;6.184;2023-06-10T03:11:03;98586.03;;;19.98;100.00
50123;BME280;36021;48.670;6.184;2023-06-10T03:13:30;98584.31;;;19.94;100.00
50123;BME280;36021;48.670;6.184;2023-06-10T03:15:56;98592.28;;;19.92;100.00
50123;BME280;36021;48.670;6.184;2023-06-10T03:18:28;98588.44;;;19.81;100.00
50123;BME280;36021;48.670;6.184;2023-06-10T03:20:56;98593.84;;;19.73;100.00
50123;BME280;36021;48.670;6.184;2023-06-10T03:23:24;98588.25;;;19.73;100.00
50123;BME280;36021;48.670;6.184;2023-06-10T03:25:50;98589.28;;;19.65;100.00
50123;BME280;36021;48.670;6.184;2023-06-10T03:28:18;98594.31;;;19.75;100.00
50123;BME280;36021;48.670;6.184;2023-06-10T03:30:44;98597.72;;;19.85;100.00
50123;BME280;36021;48.670;6.184;2023-06-10T03:33:11;98596.56;;;19.70;100.00
50123;BME280;36021;48.670;6.184;2023-06-10T03:35:39;98583.72;;;19.85;100.00
50123;BME280;36021;48.670;6.184;2023-06-10T03:38:05;98597.06;;;19.91;100.00
50123;BME280;36021;48.670;6.184;2023-06-10T03:40:31;98598.59;;;19.89;100.00
50123;BME280;36021;48.670;6.184;2023-06-10T03:43:00;98601.47;;;19.73;100.00
50123;BME280;36021;48.670;6.184;2023-06-10T03:45:26;98601.41;;;19.54;100.00
50123;BME280;36021;48.670;6.184;2023-06-10T03:47:54;98608.69;;;19.58;100.00
50123;BME280;36021;48.670;6.184;2023-06-10T03:50:24;98603.50;;;19.41;100.00
50123;BME280;36021;48.670;6.184;2023-06-10T03:52:50;98606.91;;;19.35;100.00
50123;BME280;36021;48.670;6.184;2023-06-10T03:55:18;98610.94;;;19.37;100.00
50123;BME280;36021;48.670;6.184;2023-06-10T03:57:48;98614.03;;;19.32;100.00
50123;BME280;36021;48.670;6.184;2023-06-10T04:00:16;98604.03;;;19.31;100.00
50123;BME280;36021;48.670;6.184;2023-06-10T04:02:43;98607.28;;;19.33;100.00
50123;BME280;36021;48.670;6.184;2023-06-10T04:05:16;98611.25;;;19.32;100.00
50123;BME280;36021;48.670;6.184;2023-06-10T04:07:42;98616.41;;;19.30;100.00
50123;BME280;36021;48.670;6.184;2023-06-10T04:10:10;98621.25;;;19.33;100.00
50123;BME280;36021;48.670;6.184;2023-06-10T04:12:37;98618.72;;;19.28;100.00
50123;BME280;36021;48.670;6.184;2023-06-10T04:15:04;98626.03;;;19.33;100.00
50123;BME280;36021;48.670;6.184;2023-06-10T04:17:30;98618.16;;;19.38;100.00
50123;BME280;36021;48.670;6.184;2023-06-10T04:19:56;98619.81;;;19.55;100.00
50123;BME280;36021;48.670;6.184;2023-06-10T04:22:26;98620.88;;;19.50;100.00
50123;BME280;36021;48.670;6.184;2023-06-10T04:24:54;98626.31;;;19.43;100.00
50123;BME280;36021;48.670;6.184;2023-06-10T04:27:20;98626.69;;;19.42;100.00
50123;BME280;36021;48.670;6.184;2023-06-10T04:29:46;98632.16;;;19.54;100.00
50123;BME280;36021;48.670;6.184;2023-06-10T04:32:14;98636.50;;;19.51;100.00
50123;BME280;36021;48.670;6.184;2023-06-10T04:34:41;98634.84;;;19.50;100.00
50123;BME280;36021;48.670;6.184;2023-06-10T04:37:08;98637.13;;;19.45;100.00
50123;BME280;36021;48.670;6.184;2023-06-10T04:39:34;98643.25;;;19.50;100.00
50123;BME280;36021;48.670;6.184;2023-06-10T04:42:03;98641.34;;;19.54;100.00
50123;BME280;36021;48.670;6.184;2023-06-10T04:44:31;98637.31;;;19.52;100.00
50123;BME280;36021;48.670;6.184;2023-06-10T04:46:57;98637.94;;;19.45;100.00
50123;BME280;36021;48.670;6.184;2023-06-10T04:49:22;98642.28;;;19.43;100.00
50123;BME280;36021;48.670;6.184;2023-06-10T04:51:48;98659.66;;;19.36;100.00
50123;BME280;36021;48.670;6.184;2023-06-10T04:54:14;98655.63;;;19.34;100.00
50123;BME280;36021;48.670;6.184;2023-06-10T04:56:39;98660.84;;;19.51;100.00
50123;BME280;36021;48.670;6.184;2023-06-10T04:59:06;98654.44;;;19.50;100.00
50123;BME280;36021;48.670;6.184;2023-06-10T05:01:32;98655.34;;;19.54;100.00
50123;BME280;36021;48.670;6.184;2023-06-10T05:03:58;98649.75;;;19.54;100.00
50123;BME280;36021;48.670;6.184;2023-06-10T05:06:24;98653.59;;;19.65;100.00
50123;BME280;36021;48.670;6.184;2023-06-10T05:08:49;98651.50;;;19.78;100.00
50123;BME280;36021;48.670;6.184;2023-06-10T05:11:15;98641.97;;;19.63;100.00
50123;BME280;36021;48.670;6.184;2023-06-10T05:13:42;98649.44;;;19.75;100.00
50123;BME280;36021;48.670;6.184;2023-06-10T05:16:08;98649.53;;;19.79;100.00
50123;BME280;36021;48.670;6.184;2023-06-10T05:18:36;98655.72;;;19.88;100.00
50123;BME280;36021;48.670;6.184;2023-06-10T05:21:02;98648.50;;;20.06;100.00
50123;BME280;36021;48.670;6.184;2023-06-10T05:23:28;98646.44;;;20.03;100.00
50123;BME280;36021;48.670;6.184;2023-06-10T05:25:54;98650.22;;;20.10;100.00
50123;BME280;36021;48.670;6.184;2023-06-10T05:28:20;98652.72;;;20.31;100.00
50123;BME280;36021;48.670;6.184;2023-06-10T05:30:46;98653.78;;;20.46;100.00
50123;BME280;36021;48.670;6.184;2023-06-10T05:33:14;98649.16;;;20.53;100.00
50123;BME280;36021;48.670;6.184;2023-06-10T05:35:42;98642.56;;;20.65;100.00
50123;BME280;36021;48.670;6.184;2023-06-10T05:38:07;98642.06;;;20.59;100.00
50123;BME280;36021;48.670;6.184;2023-06-10T05:40:33;98639.28;;;20.59;100.00
50123;BME280;36021;48.670;6.184;2023-06-10T05:42:59;98645.28;;;20.81;100.00
50123;BME280;36021;48.670;6.184;2023-06-10T05:45:27;98651.69;;;20.81;100.00
50123;BME280;36021;48.670;6.184;2023-06-10T05:47:52;98643.81;;;20.87;100.00
50123;BME280;36021;48.670;6.184;2023-06-10T05:50:21;98645.41;;;20.88;100.00
50123;BME280;36021;48.670;6.184;2023-06-10T05:52:47;98641.06;;;20.90;100.00
50123;BME280;36021;48.670;6.184;2023-06-10T05:55:12;98649.97;;;20.96;100.00
50123;BME280;36021;48.670;6.184;2023-06-10T05:57:38;98648.88;;;21.00;100.00
50123;BME280;36021;48.670;6.184;2023-06-10T06:00:04;98647.31;;;21.03;100.00
50123;BME280;36021;48.670;6.184;2023-06-10T06:02:39;98651.41;;;21.09;100.00
50123;BME280;36021;48.670;6.184;2023-06-10T06:05:05;98647.47;;;21.10;100.00
50123;BME280;36021;48.670;6.184;2023-06-10T06:07:30;98646.78;;;21.16;100.00
50123;BME280;36021;48.670;6.184;2023-06-10T06:09:56;98660.94;;;21.23;100.00
50123;BME280;36021;48.670;6.184;2023-06-10T06:12:21;98654.22;;;21.32;100.00
50123;BME280;36021;48.670;6.184;2023-06-10T06:14:47;98657.09;;;21.35;100.00
50123;BME280;36021;48.670;6.184;2023-06-10T06:17:14;98657.66;;;21.44;100.00
50123;BME280;36021;48.670;6.184;2023-06-10T06:19:40;98661.00;;;21.53;100.00
50123;BME280;36021;48.670;6.184;2023-06-10T06:22:08;98652.34;;;21.62;100.00
50123;BME280;36021;48.670;6.184;2023-06-10T06:24:34;98646.78;;;21.65;100.00
50123;BME280;36021;48.670;6.184;2023-06-10T06:27:00;98656.91;;;21.73;100.00
50123;BME280;36021;48.670;6.184;2023-06-10T06:29:26;98652.81;;;21.67;100.00
50123;BME280;36021;48.670;6.184;2023-06-10T06:31:52;98650.19;;;21.78;100.00
50123;BME280;36021;48.670;6.184;2023-06-10T06:34:18;98653.91;;;21.86;100.00
50123;BME280;36021;48.670;6.184;2023-06-10T06:36:44;98651.53;;;21.88;100.00
50123;BME280;36021;48.670;6.184;2023-06-10T06:39:09;98656.59;;;21.78;100.00
50123;BME280;36021;48.670;6.184;2023-06-10T06:41:37;98661.19;;;21.90;100.00
50123;BME280;36021;48.670;6.184;2023-06-10T06:44:02;98661.00;;;21.79;100.00
50123;BME280;36021;48.670;6.184;2023-06-10T06:46:36;98671.25;;;21.91;100.00
50123;BME280;36021;48.670;6.184;2023-06-10T06:49:02;98674.63;;;22.04;100.00
50123;BME280;36021;48.670;6.184;2023-06-10T06:51:28;98670.00;;;22.15;100.00
50123;BME280;36021;48.670;6.184;2023-06-10T06:53:54;98660.47;;;22.23;100.00
50123;BME280;36021;48.670;6.184;2023-06-10T06:56:23;98670.94;;;22.26;100.00
50123;BME280;36021;48.670;6.184;2023-06-10T06:58:50;98675.41;;;22.30;100.00
50123;BME280;36021;48.670;6.184;2023-06-10T07:01:16;98678.78;;;22.43;100.00
50123;BME280;36021;48.670;6.184;2023-06-10T07:03:42;98668.91;;;22.56;100.00
50123;BME280;36021;48.670;6.184;2023-06-10T07:06:08;98672.09;;;22.55;100.00
50123;BME280;36021;48.670;6.184;2023-06-10T07:08:35;98675.53;;;22.67;100.00
50123;BME280;36021;48.670;6.184;2023-06-10T07:11:00;98680.81;;;22.46;100.00
50123;BME280;36021;48.670;6.184;2023-06-10T07:13:26;98682.19;;;22.59;100.00
50123;BME280;36021;48.670;6.184;2023-06-10T07:15:51;98679.09;;;22.68;100.00
50123;BME280;36021;48.670;6.184;2023-06-10T07:18:17;98681.72;;;22.83;100.00
50123;BME280;36021;48.670;6.184;2023-06-10T07:20:43;98689.47;;;22.94;100.00
50123;BME280;36021;48.670;6.184;2023-06-10T07:23:10;98688.66;;;22.93;100.00
50123;BME280;36021;48.670;6.184;2023-06-10T07:25:37;98682.38;;;23.07;100.00
50123;BME280;36021;48.670;6.184;2023-06-10T07:28:02;98688.34;;;23.02;100.00
50123;BME280;36021;48.670;6.184;2023-06-10T07:30:28;98681.56;;;23.06;100.00
50123;BME280;36021;48.670;6.184;2023-06-10T07:32:56;98678.31;;;23.04;100.00
50123;BME280;36021;48.670;6.184;2023-06-10T07:35:22;98677.66;;;23.18;100.00
50123;BME280;36021;48.670;6.184;2023-06-10T07:37:48;98681.66;;;23.17;100.00
50123;BME280;36021;48.670;6.184;2023-06-10T07:40:14;98679.38;;;23.29;100.00
50123;BME280;36021;48.670;6.184;2023-06-10T07:42:40;98677.13;;;23.42;100.00
50123;BME280;36021;48.670;6.184;2023-06-10T07:45:07;98680.41;;;23.51;100.00
50123;BME280;36021;48.670;6.184;2023-06-10T07:47:34;98685.28;;;23.58;100.00
50123;BME280;36021;48.670;6.184;2023-06-10T07:49:59;98680.97;;;23.71;100.00
50123;BME280;36021;48.670;6.184;2023-06-10T07:52:25;98682.13;;;23.66;100.00
50123;BME280;36021;48.670;6.184;2023-06-10T07:54:51;98681.03;;;23.78;100.00
50123;BME280;36021;48.670;6.184;2023-06-10T07:57:19;98677.50;;;23.92;100.00
50123;BME280;36021;48.670;6.184;2023-06-10T07:59:45;98681.44;;;23.80;100.00
50123;BME280;36021;48.670;6.184;2023-06-10T08:02:12;98690.84;;;24.02;100.00
50123;BME280;36021;48.670;6.184;2023-06-10T08:04:37;98680.09;;;24.14;100.00
50123;BME280;36021;48.670;6.184;2023-06-10T08:07:03;98678.38;;;24.03;100.00
50123;BME280;36021;48.670;6.184;2023-06-10T08:09:29;98682.91;;;24.14;100.00
50123;BME280;36021;48.670;6.184;2023-06-10T08:11:54;98686.22;;;24.27;100.00
50123;BME280;36021;48.670;6.184;2023-06-10T08:14:24;98676.16;;;24.33;100.00
50123;BME280;36021;48.670;6.184;2023-06-10T08:16:49;98674.66;;;24.50;100.00
50123;BME280;36021;48.670;6.184;2023-06-10T08:19:15;98673.91;;;24.63;100.00
50123;BME280;36021;48.670;6.184;2023-06-10T08:21:42;98674.22;;;24.51;100.00
50123;BME280;36021;48.670;6.184;2023-06-10T08:24:09;98678.72;;;24.59;100.00
50123;BME280;36021;48.670;6.184;2023-06-10T08:26:38;98680.38;;;24.74;100.00
50123;BME280;36021;48.670;6.184;2023-06-10T08:29:04;98681.66;;;24.87;100.00
50123;BME280;36021;48.670;6.184;2023-06-10T08:31:30;98678.06;;;25.05;100.00
50123;BME280;36021;48.670;6.184;2023-06-10T08:33:56;98674.31;;;24.72;100.00
50123;BME280;36021;48.670;6.184;2023-06-10T08:36:23;98676.44;;;24.90;100.00
50123;BME280;36021;48.670;6.184;2023-06-10T08:38:49;98670.78;;;24.82;100.00
50123;BME280;36021;48.670;6.184;2023-06-10T08:41:17;98676.03;;;24.95;100.00
50123;BME280;36021;48.670;6.184;2023-06-10T08:44:09;98667.06;;;24.71;100.00
50123;BME280;36021;48.670;6.184;2023-06-10T08:46:37;98674.00;;;24.92;100.00
50123;BME280;36021;48.670;6.184;2023-06-10T08:49:05;98674.84;;;25.10;100.00
50123;BME280;36021;48.670;6.184;2023-06-10T08:51:32;98676.50;;;25.28;100.00
50123;BME280;36021;48.670;6.184;2023-06-10T08:54:08;98682.09;;;25.04;100.00
50123;BME280;36021;48.670;6.184;2023-06-10T08:56:39;98675.69;;;25.21;100.00
50123;BME280;36021;48.670;6.184;2023-06-10T08:59:06;98677.31;;;25.36;100.00
50123;BME280;36021;48.670;6.184;2023-06-10T09:01:32;98680.56;;;25.45;100.00
50123;BME280;36021;48.670;6.184;2023-06-10T09:03:59;98672.47;;;25.36;100.00
50123;BME280;36021;48.670;6.184;2023-06-10T09:06:25;98671.72;;;25.57;100.00
50123;BME280;36021;48.670;6.184;2023-06-10T09:08:52;98669.28;;;25.73;100.00
50123;BME280;36021;48.670;6.184;2023-06-10T09:11:18;98672.50;;;25.82;100.00
50123;BME280;36021;48.670;6.184;2023-06-10T09:13:44;98666.03;;;25.89;100.00
50123;BME280;36021;48.670;6.184;2023-06-10T09:16:10;98669.28;;;25.95;100.00
50123;BME280;36021;48.670;6.184;2023-06-10T09:18:38;98660.75;;;26.05;100.00
50123;BME280;36021;48.670;6.184;2023-06-10T09:21:05;98664.41;;;26.20;100.00
50123;BME280;36021;48.670;6.184;2023-06-10T09:23:32;98659.94;;;26.29;100.00
50123;BME280;36021;48.670;6.184;2023-06-10T09:25:58;98654.28;;;26.36;100.00
50123;BME280;36021;48.670;6.184;2023-06-10T09:28:24;98659.84;;;26.54;100.00
50123;BME280;36021;48.670;6.184;2023-06-10T09:31:01;98662.63;;;26.61;100.00
50123;BME280;36021;48.670;6.184;2023-06-10T09:33:29;98664.63;;;26.71;100.00
50123;BME280;36021;48.670;6.184;2023-06-10T09:35:55;98668.69;;;26.67;100.00
50123;BME280;36021;48.670;6.184;2023-06-10T09:38:22;98657.34;;;26.70;100.00
50123;BME280;36021;48.670;6.184;2023-06-10T09:40:52;98661.75;;;26.78;100.00
50123;BME280;36021;48.670;6.184;2023-06-10T09:43:18;98670.22;;;26.92;100.00
50123;BME280;36021;48.670;6.184;2023-06-10T09:45:49;98660.44;;;27.01;100.00
50123;BME280;36021;48.670;6.184;2023-06-10T09:48:15;98671.28;;;27.13;100.00
50123;BME280;36021;48.670;6.184;2023-06-10T09:50:44;98670.41;;;27.23;100.00
50123;BME280;36021;48.670;6.184;2023-06-10T09:53:11;98666.75;;;27.26;100.00
50123;BME280;36021;48.670;6.184;2023-06-10T09:55:41;98659.81;;;27.37;100.00
50123;BME280;36021;48.670;6.184;2023-06-10T09:58:07;98663.00;;;27.43;100.00
50123;BME280;36021;48.670;6.184;2023-06-10T10:00:33;98669.91;;;27.42;100.00
50123;BME280;36021;48.670;6.184;2023-06-10T10:02:59;98668.28;;;27.37;100.00
50123;BME280;36021;48.670;6.184;2023-06-10T10:05:25;98661.34;;;27.49;100.00
50123;BME280;36021;48.670;6.184;2023-06-10T10:07:51;98663.81;;;27.47;100.00
50123;BME280;36021;48.670;6.184;2023-06-10T10:10:20;98665.38;;;27.55;100.00
50123;BME280;36021;48.670;6.184;2023-06-10T10:12:54;98656.81;;;27.59;100.00
50123;BME280;36021;48.670;6.184;2023-06-10T10:15:21;98657.22;;;27.61;100.00
50123;BME280;36021;48.670;6.184;2023-06-10T10:18:00;98661.19;;;27.70;100.00
50123;BME280;36021;48.670;6.184;2023-06-10T10:20:33;98646.28;;;27.63;100.00
50123;BME280;36021;48.670;6.184;2023-06-10T10:23:03;98655.38;;;27.33;100.00
50123;BME280;36021;48.670;6.184;2023-06-10T10:25:39;98655.81;;;27.31;100.00
50123;BME280;36021;48.670;6.184;2023-06-10T10:28:11;98649.16;;;27.56;100.00
50123;BME280;36021;48.670;6.184;2023-06-10T10:30:53;98650.63;;;27.74;100.00
50123;BME280;36021;48.670;6.184;2023-06-10T10:33:31;98647.59;;;27.95;100.00
50123;BME280;36021;48.670;6.184;2023-06-10T10:35:59;98645.41;;;28.14;100.00
50123;BME280;36021;48.670;6.184;2023-06-10T10:38:25;98648.66;;;28.12;100.00
50123;BME280;36021;48.670;6.184;2023-06-10T10:40:52;98648.50;;;28.26;100.00
50123;BME280;36021;48.670;6.184;2023-06-10T10:43:27;98651.69;;;28.32;100.00
50123;BME280;36021;48.670;6.184;2023-06-10T10:46:02;98643.09;;;28.39;100.00
50123;BME280;36021;48.670;6.184;2023-06-10T10:48:37;98643.53;;;28.34;100.00
50123;BME280;36021;48.670;6.184;2023-06-10T10:51:03;98642.53;;;28.51;100.00
50123;BME280;36021;48.670;6.184;2023-06-10T10:53:29;98645.66;;;28.60;100.00
50123;BME280;36021;48.670;6.184;2023-06-10T10:56:08;98643.59;;;28.64;100.00
50123;BME280;36021;48.670;6.184;2023-06-10T10:58:38;98638.22;;;28.73;100.00
50123;BME280;36021;48.670;6.184;2023-06-10T11:01:14;98634.16;;;28.74;99.47
50123;BME280;36021;48.670;6.184;2023-06-10T11:03:46;98637.56;;;28.92;100.00
50123;BME280;36021;48.670;6.184;2023-06-10T11:06:16;98628.03;;;29.06;94.30
50123;BME280;36021;48.670;6.184;2023-06-10T11:11:22;98632.56;;;29.30;85.58
50123;BME280;36021;48.670;6.184;2023-06-10T11:14:30;98630.13;;;29.29;86.68
50123;BME280;36021;48.670;6.184;2023-06-10T11:16:58;98628.84;;;29.33;82.92
50123;BME280;36021;48.670;6.184;2023-06-10T11:19:35;98630.34;;;29.15;84.51
50123;BME280;36021;48.670;6.184;2023-06-10T11:22:07;98629.41;;;29.25;86.82
50123;BME280;36021;48.670;6.184;2023-06-10T11:24:33;98621.78;;;29.18;82.23
50123;BME280;36021;48.670;6.184;2023-06-10T11:27:20;98625.97;;;29.37;80.46
50123;BME280;36021;48.670;6.184;2023-06-10T11:30:19;98629.66;;;29.34;73.66
50123;BME280;36021;48.670;6.184;2023-06-10T11:32:50;98621.69;;;29.48;79.38
50123;BME280;36021;48.670;6.184;2023-06-10T11:35:18;98614.16;;;29.62;80.85
50123;BME280;36021;48.670;6.184;2023-06-10T11:37:44;98616.59;;;29.63;76.87
50123;BME280;36021;48.670;6.184;2023-06-10T11:40:11;98613.63;;;29.70;73.65
50123;BME280;36021;48.670;6.184;2023-06-10T11:42:40;98609.75;;;29.84;68.10
50123;BME280;36021;48.670;6.184;2023-06-10T11:45:09;98614.53;;;29.90;61.55
50123;BME280;36021;48.670;6.184;2023-06-10T11:47:34;98612.03;;;29.92;54.19
50123;BME280;36021;48.670;6.184;2023-06-10T11:50:00;98617.72;;;29.92;59.34
50123;BME280;36021;48.670;6.184;2023-06-10T11:52:31;98615.84;;;30.06;61.46
50123;BME280;36021;48.670;6.184;2023-06-10T11:54:59;98608.69;;;29.97;64.52
50123;BME280;36021;48.670;6.184;2023-06-10T11:57:26;98600.53;;;30.00;64.37
50123;BME280;36021;48.670;6.184;2023-06-10T11:59:52;98597.91;;;30.09;65.39
50123;BME280;36021;48.670;6.184;2023-06-10T12:02:17;98583.03;;;30.21;66.38
50123;BME280;36021;48.670;6.184;2023-06-10T12:04:44;98582.31;;;30.36;65.71
50123;BME280;36021;48.670;6.184;2023-06-10T12:07:17;98588.44;;;30.35;62.58
50123;BME280;36021;48.670;6.184;2023-06-10T12:09:44;98585.25;;;30.33;61.43
50123;BME280;36021;48.670;6.184;2023-06-10T12:12:13;98586.03;;;30.53;63.15
50123;BME280;36021;48.670;6.184;2023-06-10T12:14:55;98579.00;;;30.41;59.69
50123;BME280;36021;48.670;6.184;2023-06-10T12:20:02;98581.22;;;30.30;52.96
50123;BME280;36021;48.670;6.184;2023-06-10T12:22:40;98572.47;;;30.61;55.88
50123;BME280;36021;48.670;6.184;2023-06-10T12:25:07;98565.66;;;30.74;50.92
50123;BME280;36021;48.670;6.184;2023-06-10T12:27:34;98567.81;;;30.86;51.86
50123;BME280;36021;48.670;6.184;2023-06-10T12:30:02;98568.25;;;31.05;54.88
50123;BME280;36021;48.670;6.184;2023-06-10T12:32:43;98569.66;;;31.13;54.92
50123;BME280;36021;48.670;6.184;2023-06-10T12:35:11;98558.44;;;31.06;56.39
50123;BME280;36021;48.670;6.184;2023-06-10T12:37:39;98555.41;;;30.61;54.62
50123;BME280;36021;48.670;6.184;2023-06-10T12:40:05;98561.16;;;30.57;59.53
50123;BME280;36021;48.670;6.184;2023-06-10T12:42:37;98561.16;;;30.57;58.85
50123;BME280;36021;48.670;6.184;2023-06-10T12:45:05;98558.75;;;30.91;55.60
50123;BME280;36021;48.670;6.184;2023-06-10T12:47:37;98557.84;;;31.14;52.29
50123;BME280;36021;48.670;6.184;2023-06-10T12:50:07;98557.13;;;31.26;56.63
50123;BME280;36021;48.670;6.184;2023-06-10T12:52:33;98544.66;;;31.04;57.16
50123;BME280;36021;48.670;6.184;2023-06-10T12:54:59;98560.94;;;31.20;57.12
50123;BME280;36021;48.670;6.184;2023-06-10T12:57:27;98554.53;;;31.32;51.81
50123;BME280;36021;48.670;6.184;2023-06-10T12:59:55;98546.88;;;31.45;50.33
50123;BME280;36021;48.670;6.184;2023-06-10T13:02:28;98554.66;;;31.61;51.08